Golden Dolphin — WYZ5247 — position and weather

sailwx.info

Track history (hours):
 
Tides and Currents Weather Stations Pressure Air Temp Water Temp Dewpoint Dewpoint Depression Visibility Wind Speed Wind Dir Waves Ship Positions

Oceanographic research ship Golden Dolphin (USA)

Owner: ROSS LABORATORIES INC, SEATTLE, WA. More information available from US FCC via Universal Licensing System and Coast Guard Vessel Documentation Center.

Last reported at 2017-Dec-15 23:52 UTC. Time now 2017-Dec-18 18:27 UTC.
Position N 47°39' W 122°23'.

; draft 2.2 m.

Type: Dredging. MMSI: 367117140.

Date/timePositionNaut miles runAvg speedWind from/ knotsBaromVisibWave heightAir tempDewpointWater temp
2017-Dec-15 23:52N 47°39' W 122°23'1 1.4
2017-Dec-15 23:30N 47°40' W 122°23'2 4.0
2017-Dec-15 23:00N 47°39' W 122°21'3 5.3
2017-Dec-15 22:30N 47°39' W 122°17'2 3.5
2017-Dec-15 22:00N 47°40' W 122°15'1 1.9
2017-Dec-15 21:30N 47°39' W 122°14'0 0.7
2017-Dec-15 21:00N 47°40' W 122°14'0 0.6
2017-Dec-15 20:30N 47°40' W 122°14'1 1.4
2017-Dec-15 20:00N 47°40' W 122°15'3 5.5
2017-Dec-15 19:30N 47°39' W 122°19'1 2.7
2017-Dec-15 19:00N 47°38' W 122°20'0 0.3
2017-Dec-15 18:30N 47°38' W 122°20'0 0.9
2017-Dec-15 18:00N 47°38' W 122°20'0 0.8
2017-Dec-15 17:30N 47°39' W 122°20'2 3.3
2017-Dec-15 16:58N 47°39' W 122°23'  
Track history (hours):
 
Tides and Currents Weather Stations Pressure Air Temp Water Temp Dewpoint Dewpoint Depression Visibility Wind Speed Wind Dir Waves Ship Positions

Oceanographic research ship Golden Dolphin (USA)

Owner: ROSS LABORATORIES INC, SEATTLE, WA. More information available from US FCC via Universal Licensing System and Coast Guard Vessel Documentation Center.

Last reported at 2017-Dec-15 23:52 UTC. Time now 2017-Dec-18 18:27 UTC.
Position N 47°39' W 122°23'.

; draft 2.2 m.

Type: Dredging. MMSI: 367117140.

Date/timePositionNaut miles runAvg speedWind from/ knotsBaromVisibWave heightAir tempDewpointWater temp
2017-Dec-15 23:52N 47°39' W 122°23'1 1.4
2017-Dec-15 23:30N 47°40' W 122°23'2 4.0
2017-Dec-15 23:00N 47°39' W 122°21'3 5.3
2017-Dec-15 22:30N 47°39' W 122°17'2 3.5
2017-Dec-15 22:00N 47°40' W 122°15'1 1.9
2017-Dec-15 21:30N 47°39' W 122°14'0 0.7
2017-Dec-15 21:00N 47°40' W 122°14'0 0.6
2017-Dec-15 20:30N 47°40' W 122°14'1 1.4
2017-Dec-15 20:00N 47°40' W 122°15'3 5.5
2017-Dec-15 19:30N 47°39' W 122°19'1 2.7
2017-Dec-15 19:00N 47°38' W 122°20'0 0.3
2017-Dec-15 18:30N 47°38' W 122°20'0 0.9
2017-Dec-15 18:00N 47°38' W 122°20'0 0.8
2017-Dec-15 17:30N 47°39' W 122°20'2 3.3
2017-Dec-15 16:58N 47°39' W 122°23'  

Dump ship's entire track history